createdAt,value
2023-03-26T00:00:19.864Z,12.47
2023-03-26T00:01:24.552Z,12.49
2023-03-26T00:02:29.856Z,12.44
2023-03-26T00:03:37.462Z,12.50
2023-03-26T00:04:39.180Z,12.43
2023-03-26T00:05:41.166Z,12.53
2023-03-26T00:06:42.912Z,12.50
2023-03-26T00:07:44.639Z,12.53
2023-03-26T00:08:46.500Z,12.50
2023-03-26T00:09:48.606Z,12.54
2023-03-26T00:10:50.422Z,12.50
2023-03-26T00:11:52.180Z,12.59
2023-03-26T00:12:53.942Z,12.60
2023-03-26T00:13:59.793Z,12.61
2023-03-26T00:15:01.483Z,12.56
2023-03-26T00:16:03.967Z,12.59
2023-03-26T00:17:05.707Z,12.64
2023-03-26T00:18:09.346Z,12.68
2023-03-26T00:19:11.786Z,12.70
2023-03-26T00:20:14.203Z,12.69
2023-03-26T00:21:17.924Z,12.72
2023-03-26T00:22:19.672Z,12.70
2023-03-26T00:23:21.375Z,12.66
2023-03-26T00:24:29.571Z,12.73
2023-03-26T00:25:32.199Z,12.75
2023-03-26T00:26:35.621Z,12.78
2023-03-26T00:27:38.223Z,12.77
2023-03-26T00:28:42.267Z,12.78
2023-03-26T00:29:44.040Z,12.78
2023-03-26T00:30:46.082Z,12.78
2023-03-26T00:31:47.871Z,12.70
2023-03-26T00:32:53.473Z,12.80
2023-03-26T00:33:55.927Z,12.62
2023-03-26T00:34:58.260Z,12.83
2023-03-26T00:36:03.923Z,12.83
2023-03-26T00:37:06.140Z,12.78
2023-03-26T00:38:07.946Z,12.84
2023-03-26T00:39:10.243Z,12.82
2023-03-26T00:40:12.587Z,12.82
2023-03-26T00:41:22.815Z,12.88
2023-03-26T00:42:24.662Z,12.81
2023-03-26T00:43:26.652Z,12.89
2023-03-26T00:44:28.352Z,12.91
2023-03-26T00:45:30.079Z,12.89
2023-03-26T00:46:32.485Z,12.92
2023-03-26T00:47:34.803Z,12.88
2023-03-26T00:48:44.886Z,12.89
2023-03-26T00:49:48.935Z,12.91
2023-03-26T00:50:50.974Z,12.92
2023-03-26T00:51:53.181Z,12.84
2023-03-26T00:52:55.981Z,12.86
2023-03-26T00:53:58.586Z,12.78
2023-03-26T00:55:00.347Z,12.76
2023-03-26T00:56:02.051Z,12.70
2023-03-26T00:57:06.896Z,12.70
2023-03-26T00:58:12.456Z,12.71
2023-03-26T00:59:14.193Z,12.75
2023-03-26T01:00:19.082Z,12.84
2023-03-26T01:01:29.407Z,12.89
2023-03-26T01:02:33.010Z,12.86
2023-03-26T01:03:38.567Z,13.01
2023-03-26T01:04:40.692Z,13.01
2023-03-26T01:05:45.558Z,13.07
2023-03-26T01:06:47.294Z,13.11
2023-03-26T01:07:49.247Z,13.10
2023-03-26T01:08:53.004Z,13.13
2023-03-26T01:10:00.008Z,13.12
2023-03-26T01:11:07.495Z,13.12
2023-03-26T01:12:16.981Z,13.11
2023-03-26T01:13:24.465Z,13.13
2023-03-26T01:14:29.074Z,13.12
2023-03-26T01:15:30.882Z,13.08
2023-03-26T01:16:42.063Z,13.10
2023-03-26T01:17:43.678Z,13.13
2023-03-26T01:18:46.033Z,13.14
2023-03-26T01:20:13.170Z,13.11
2023-03-26T01:21:22.856Z,13.09
2023-03-26T01:22:27.389Z,13.07
2023-03-26T01:23:42.671Z,13.02
2023-03-26T01:24:46.328Z,12.95
2023-03-26T01:25:58.179Z,12.81
2023-03-26T01:27:20.934Z,12.87
2023-03-26T01:28:25.372Z,12.84
2023-03-26T01:29:32.512Z,12.83
2023-03-26T01:30:51.966Z,12.84
2023-03-26T01:32:11.993Z,12.84
2023-03-26T01:33:36.718Z,12.79
2023-03-26T01:34:54.310Z,12.79
2023-03-26T01:36:23.714Z,12.84
2023-03-26T01:37:52.698Z,12.91
2023-03-26T01:39:01.209Z,12.95
2023-03-26T01:40:10.146Z,13.00
2023-03-26T01:41:25.610Z,13.09
2023-03-26T01:42:36.134Z,13.16
2023-03-26T01:44:15.475Z,13.22
2023-03-26T01:45:23.924Z,13.26
2023-03-26T01:46:27.307Z,13.35
2023-03-26T01:47:30.058Z,13.37
2023-03-26T01:48:43.412Z,13.41
2023-03-26T01:49:45.142Z,13.43
2023-03-26T01:50:48.780Z,13.47
2023-03-26T01:51:51.356Z,13.54
2023-03-26T01:52:53.056Z,13.60
2023-03-26T01:53:56.691Z,13.58
2023-03-26T01:54:58.838Z,13.66
2023-03-26T01:56:41.750Z,13.67
2023-03-26T01:57:55.219Z,13.67
2023-03-26T01:59:17.889Z,13.70
2023-03-26T02:00:19.677Z,13.71
2023-03-26T02:01:45.200Z,13.70
2023-03-26T02:02:55.102Z,13.72
2023-03-26T02:04:30.871Z,13.69
2023-03-26T02:05:41.734Z,13.71
2023-03-26T02:07:08.045Z,13.71
2023-03-26T02:08:35.547Z,13.73
2023-03-26T02:09:45.981Z,13.72
2023-03-26T02:10:55.104Z,13.69
2023-03-26T02:11:58.516Z,13.68
2023-03-26T02:13:00.916Z,13.67
2023-03-26T02:14:05.549Z,13.76
2023-03-26T02:15:07.958Z,13.76
2023-03-26T02:16:16.610Z,13.84
2023-03-26T02:17:19.249Z,13.78
2023-03-26T02:18:24.332Z,13.82
2023-03-26T02:19:26.380Z,13.81
2023-03-26T02:20:31.159Z,13.83
2023-03-26T02:21:34.246Z,13.85
2023-03-26T02:22:41.110Z,13.82
2023-03-26T02:23:47.222Z,13.85
2023-03-26T02:24:49.026Z,13.81
2023-03-26T02:25:50.742Z,13.60
2023-03-26T02:26:52.571Z,13.77
2023-03-26T02:27:54.442Z,13.84
2023-03-26T02:28:56.892Z,13.83
2023-03-26T02:29:58.581Z,13.85
2023-03-26T02:31:02.059Z,13.79
2023-03-26T02:32:08.286Z,13.82
2023-03-26T02:33:10.083Z,13.77
2023-03-26T02:34:11.878Z,13.81
2023-03-26T02:35:13.889Z,13.82
2023-03-26T02:36:18.076Z,13.82
2023-03-26T02:37:20.013Z,13.75
2023-03-26T02:38:25.359Z,13.72
2023-03-26T02:39:27.808Z,13.80
2023-03-26T02:40:29.521Z,13.82
2023-03-26T02:41:31.217Z,13.84
2023-03-26T02:42:33.130Z,13.86
2023-03-26T02:43:34.824Z,13.76
2023-03-26T02:44:38.857Z,13.76
2023-03-26T02:45:40.880Z,13.77
2023-03-26T02:46:42.620Z,13.82
2023-03-26T02:47:46.269Z,13.82
2023-03-26T02:48:48.079Z,13.81
2023-03-26T02:49:49.775Z,13.79
2023-03-26T02:50:54.682Z,13.80
2023-03-26T02:51:57.112Z,13.73
2023-03-26T02:52:59.057Z,13.76
2023-03-26T02:54:04.312Z,13.81
2023-03-26T02:55:06.562Z,13.80
2023-03-26T02:56:09.521Z,13.77
2023-03-26T02:57:11.362Z,13.81
2023-03-26T02:58:17.404Z,13.82
2023-03-26T02:59:19.217Z,13.82
2023-03-26T03:00:22.849Z,13.85
2023-03-26T03:01:24.687Z,13.78
2023-03-26T03:02:29.475Z,13.78
2023-03-26T03:03:31.366Z,13.84
2023-03-26T03:04:33.097Z,13.84
2023-03-26T03:05:35.277Z,13.83
2023-03-26T03:06:38.551Z,13.85
2023-03-26T03:07:41.521Z,13.81
2023-03-26T03:08:46.113Z,13.79
2023-03-26T03:09:50.816Z,13.79
2023-03-26T03:11:07.181Z,13.79
2023-03-26T03:12:08.915Z,13.76
2023-03-26T03:13:10.681Z,13.70
2023-03-26T03:14:12.456Z,13.76
2023-03-26T03:15:14.291Z,13.74
2023-03-26T03:16:16.657Z,13.74
2023-03-26T03:17:20.888Z,13.75
2023-03-26T03:18:22.660Z,13.73
2023-03-26T03:19:24.368Z,13.74
2023-03-26T03:20:26.129Z,13.74
2023-03-26T03:21:29.271Z,13.70
2023-03-26T03:22:30.981Z,13.68
2023-03-26T03:23:32.734Z,13.64
2023-03-26T03:24:34.432Z,13.64
2023-03-26T03:25:36.311Z,13.58
2023-03-26T03:26:38.102Z,13.49
2023-03-26T03:27:41.397Z,13.58
2023-03-26T03:28:45.251Z,13.52
2023-03-26T03:29:47.070Z,13.57
2023-03-26T03:30:49.122Z,13.47
2023-03-26T03:31:51.006Z,13.51
2023-03-26T03:32:52.745Z,13.51
2023-03-26T03:33:54.488Z,13.46
2023-03-26T03:34:56.560Z,13.44
2023-03-26T03:35:59.498Z,13.45
2023-03-26T03:37:01.258Z,13.37
2023-03-26T03:38:02.957Z,13.48
2023-03-26T03:39:05.293Z,13.43
2023-03-26T03:40:10.886Z,13.43
2023-03-26T03:41:12.657Z,13.33
2023-03-26T03:42:14.407Z,13.28
2023-03-26T03:43:16.101Z,13.31
2023-03-26T03:44:17.850Z,13.26
2023-03-26T03:45:19.674Z,13.27
2023-03-26T03:46:21.453Z,13.24
2023-03-26T03:47:23.312Z,13.20
2023-03-26T03:48:25.013Z,13.24
2023-03-26T03:49:26.792Z,13.22
2023-03-26T03:50:28.535Z,13.18
2023-03-26T03:51:30.460Z,13.10
2023-03-26T03:52:32.531Z,13.12
2023-03-26T03:53:37.367Z,13.11
2023-03-26T03:54:39.243Z,13.00
2023-03-26T03:55:42.202Z,13.00
2023-03-26T03:56:45.817Z,13.01
2023-03-26T03:57:47.656Z,13.01
2023-03-26T03:58:49.378Z,13.03
2023-03-26T03:59:51.112Z,12.94
2023-03-26T04:00:53.194Z,12.94
2023-03-26T04:01:54.936Z,12.97
2023-03-26T04:02:58.046Z,12.97
2023-03-26T04:04:00.176Z,12.93
2023-03-26T04:05:03.549Z,12.95
2023-03-26T04:06:11.172Z,12.92
2023-03-26T04:07:12.927Z,12.90
2023-03-26T04:08:14.614Z,12.89
2023-03-26T04:09:16.340Z,12.84
2023-03-26T04:10:18.093Z,12.89
2023-03-26T04:11:19.850Z,12.93
2023-03-26T04:12:21.571Z,12.91
2023-03-26T04:13:23.339Z,12.93
2023-03-26T04:14:25.035Z,12.80
2023-03-26T04:15:26.768Z,12.88
2023-03-26T04:16:28.738Z,12.83
2023-03-26T04:17:32.857Z,12.87
2023-03-26T04:18:34.887Z,12.78
2023-03-26T04:19:37.537Z,12.83
2023-03-26T04:20:46.487Z,12.83
2023-03-26T04:21:49.616Z,12.82
2023-03-26T04:22:51.335Z,12.81
2023-03-26T04:23:54.378Z,12.79
2023-03-26T04:24:56.082Z,12.80
2023-03-26T04:26:04.235Z,12.76
2023-03-26T04:27:09.986Z,12.73
2023-03-26T06:06:17.876Z,16.20
2023-03-26T06:07:20.052Z,16.21
2023-03-26T06:08:22.376Z,16.02
2023-03-26T06:09:24.107Z,15.77
2023-03-26T06:10:26.110Z,15.87
2023-03-26T06:11:27.806Z,16.10
2023-03-26T06:12:29.619Z,16.34
2023-03-26T06:13:31.363Z,16.51
2023-03-26T06:14:33.298Z,16.73
2023-03-26T06:15:35.357Z,16.77
2023-03-26T06:16:37.241Z,16.87
2023-03-26T06:17:39.075Z,16.91
2023-03-26T06:18:41.193Z,16.90
2023-03-26T06:19:42.955Z,16.76
2023-03-26T06:20:44.761Z,16.77
2023-03-26T06:21:46.570Z,16.86
2023-03-26T06:22:48.306Z,16.70
2023-03-26T06:23:51.761Z,16.70
2023-03-26T06:24:53.703Z,16.61
2023-03-26T06:25:56.220Z,16.63
2023-03-26T06:26:57.965Z,16.69
2023-03-26T06:27:59.692Z,16.75
2023-03-26T06:29:01.532Z,16.74
2023-03-26T06:30:03.474Z,16.89
2023-03-26T06:31:05.704Z,17.00
2023-03-26T06:32:19.074Z,16.96
2023-03-26T06:33:24.144Z,17.16
2023-03-26T06:34:26.487Z,17.28
2023-03-26T06:35:30.004Z,17.27
2023-03-26T06:36:31.743Z,17.30
2023-03-26T06:37:33.467Z,17.26
2023-03-26T06:38:35.215Z,17.34
2023-03-26T06:39:37.044Z,17.62
2023-03-26T06:40:38.911Z,17.73
2023-03-26T06:41:41.314Z,17.74
2023-03-26T06:43:07.816Z,17.71
2023-03-26T06:44:04.734Z,17.78
2023-03-26T06:45:07.180Z,17.76
2023-03-26T06:46:09.376Z,17.76
2023-03-26T06:47:11.310Z,17.81
2023-03-26T06:48:13.021Z,17.87
2023-03-26T06:49:14.711Z,17.85
2023-03-26T06:50:16.523Z,17.95
2023-03-26T06:51:21.513Z,17.90
2023-03-26T06:52:23.248Z,17.90
2023-03-26T06:53:25.009Z,17.89
2023-03-26T06:54:27.665Z,17.93
2023-03-26T06:55:29.433Z,18.22
2023-03-26T06:56:31.215Z,18.23
2023-03-26T06:57:33.029Z,18.46
2023-03-26T06:58:35.262Z,18.44
2023-03-26T06:59:36.948Z,18.49
2023-03-26T07:00:39.206Z,18.68
2023-03-26T07:01:41.007Z,18.88
2023-03-26T07:02:42.791Z,18.99
2023-03-26T07:03:44.579Z,19.04
2023-03-26T07:04:46.376Z,19.19
2023-03-26T07:05:48.572Z,19.24
2023-03-26T07:06:50.357Z,19.23
2023-03-26T07:07:52.055Z,19.41
2023-03-26T07:08:55.585Z,19.31
2023-03-26T07:09:57.279Z,19.35
2023-03-26T07:10:59.017Z,19.34
2023-03-26T07:12:01.331Z,19.22
2023-03-26T07:13:03.092Z,19.30
2023-03-26T07:14:04.829Z,19.10
2023-03-26T07:15:08.408Z,19.00
2023-03-26T07:16:10.119Z,19.10
2023-03-26T07:17:11.856Z,19.16
2023-03-26T07:18:13.571Z,19.44
2023-03-26T07:19:15.305Z,19.72
2023-03-26T07:20:17.062Z,19.69
2023-03-26T07:21:19.970Z,19.77
2023-03-26T07:22:24.453Z,19.85
2023-03-26T07:23:26.506Z,19.73
2023-03-26T07:24:29.906Z,19.54
2023-03-26T07:25:32.120Z,19.56
2023-03-26T07:26:48.132Z,19.58
2023-03-26T07:27:55.547Z,19.71
2023-03-26T07:29:16.138Z,19.62
2023-03-26T07:30:25.441Z,19.85
2023-03-26T07:31:34.941Z,19.94
2023-03-26T07:32:52.767Z,19.98
2023-03-26T07:34:22.526Z,19.91
2023-03-26T07:35:32.666Z,19.92
2023-03-26T07:37:02.329Z,19.91
2023-03-26T07:38:23.336Z,20.54
2023-03-26T07:39:49.865Z,21.08
2023-03-26T07:41:01.340Z,21.11
2023-03-26T07:42:27.005Z,20.99
2023-03-26T07:43:48.356Z,20.85
2023-03-26T07:45:03.217Z,20.83
2023-03-26T07:46:05.741Z,20.65
2023-03-26T07:47:33.054Z,20.79
2023-03-26T07:48:44.010Z,20.69
2023-03-26T07:49:49.288Z,20.90
2023-03-26T07:50:51.446Z,21.10
2023-03-26T07:51:53.417Z,21.19
2023-03-26T07:52:55.540Z,21.30
2023-03-26T07:54:00.612Z,21.44
2023-03-26T07:55:03.613Z,21.40
2023-03-26T07:56:11.445Z,21.39
2023-03-26T07:57:28.571Z,21.13
2023-03-26T07:58:45.551Z,21.03
2023-03-26T07:59:59.798Z,21.08
2023-03-26T08:01:12.309Z,20.89
2023-03-26T08:02:32.803Z,20.77
2023-03-26T08:03:40.339Z,20.93
2023-03-26T08:05:10.622Z,20.92
2023-03-26T08:06:22.401Z,20.60
2023-03-26T08:07:27.149Z,20.86
2023-03-26T08:08:38.293Z,21.07
2023-03-26T08:09:53.833Z,21.24
2023-03-26T08:10:58.600Z,21.40
2023-03-26T08:12:42.739Z,21.51
2023-03-26T08:14:01.181Z,21.65
2023-03-26T08:15:21.902Z,21.53
2023-03-26T08:16:49.772Z,21.47
2023-03-26T08:18:04.165Z,21.46
2023-03-26T08:19:27.796Z,21.59
2023-03-26T08:20:41.678Z,21.52
2023-03-26T08:21:53.676Z,21.68
2023-03-26T08:23:17.210Z,21.81
2023-03-26T08:24:39.291Z,21.71
2023-03-26T08:25:44.769Z,21.61
2023-03-26T08:26:58.501Z,21.57
2023-03-26T08:28:06.492Z,21.56
2023-03-26T08:29:29.327Z,21.80
2023-03-26T08:30:31.525Z,21.68
2023-03-26T08:31:36.651Z,21.49
2023-03-26T08:32:38.876Z,21.58
2023-03-26T08:33:40.987Z,21.77
2023-03-26T08:34:42.712Z,21.88
2023-03-26T08:35:46.153Z,21.88
2023-03-26T08:36:47.920Z,21.91
2023-03-26T08:37:49.706Z,22.02
2023-03-26T08:38:51.870Z,21.83
2023-03-26T08:39:54.228Z,21.80
2023-03-26T08:41:01.703Z,21.89
2023-03-26T08:42:24.274Z,21.79
2023-03-26T08:44:13.893Z,22.07
2023-03-26T08:45:36.704Z,22.42
2023-03-26T08:46:38.380Z,22.62
2023-03-26T08:48:04.854Z,22.59
2023-03-26T08:49:29.588Z,22.59
2023-03-26T08:50:34.156Z,22.75
2023-03-26T08:52:11.996Z,23.09
2023-03-26T08:53:35.226Z,23.17
2023-03-26T08:55:13.930Z,22.95
2023-03-26T08:56:27.764Z,22.90
2023-03-26T08:57:47.989Z,23.05
2023-03-26T08:59:01.490Z,23.05
2023-03-26T09:00:34.354Z,22.85
2023-03-26T09:02:16.483Z,22.78
2023-03-26T09:03:21.346Z,22.57
2023-03-26T09:04:34.995Z,22.67
2023-03-26T09:05:56.648Z,22.68
2023-03-26T09:07:36.651Z,22.30
2023-03-26T09:08:53.813Z,22.42
2023-03-26T09:09:56.230Z,22.60
2023-03-26T09:11:13.009Z,22.76
2023-03-26T09:12:32.487Z,22.86
2023-03-26T09:13:52.521Z,23.07
2023-03-26T09:15:09.170Z,23.18
2023-03-26T09:16:30.209Z,23.10
2023-03-26T09:18:03.246Z,23.03
2023-03-26T09:19:07.799Z,23.14
2023-03-26T09:20:39.627Z,23.11
2023-03-26T09:22:06.036Z,23.18
2023-03-26T09:23:07.662Z,23.37
2023-03-26T09:24:46.887Z,23.46
2023-03-26T09:25:48.613Z,23.16
2023-03-26T09:27:15.965Z,23.27
2023-03-26T09:29:06.699Z,23.55
2023-03-26T09:30:26.785Z,23.46
2023-03-26T09:31:58.100Z,23.54
2023-03-26T09:33:09.938Z,23.57
2023-03-26T09:35:05.089Z,23.89
2023-03-26T09:36:29.845Z,24.04
2023-03-26T09:37:57.024Z,24.22
2023-03-26T09:39:00.972Z,24.20
2023-03-26T09:40:22.808Z,24.03
2023-03-26T09:41:37.418Z,24.02
2023-03-26T09:42:56.598Z,24.03
2023-03-26T09:44:20.050Z,24.24
2023-03-26T09:45:39.528Z,24.10
2023-03-26T09:47:00.460Z,24.14
2023-03-26T09:48:29.886Z,24.17
2023-03-26T09:49:53.056Z,24.04
2023-03-26T09:51:27.812Z,23.93
2023-03-26T09:52:35.457Z,23.92
2023-03-26T09:53:55.528Z,23.88
2023-03-26T09:54:57.171Z,23.76
2023-03-26T09:56:16.198Z,23.75
2023-03-26T09:57:43.858Z,23.90
2023-03-26T09:58:57.002Z,23.56
2023-03-26T10:00:37.740Z,23.69
2023-03-26T10:01:42.635Z,23.65
2023-03-26T10:03:13.877Z,23.83
2023-03-26T10:04:41.316Z,23.96
2023-03-26T10:05:55.400Z,23.90
2023-03-26T10:07:06.129Z,23.87
2023-03-26T10:08:23.624Z,24.03
2023-03-26T10:09:41.446Z,24.17
2023-03-26T10:11:16.886Z,24.17
2023-03-26T10:12:50.154Z,24.34
2023-03-26T10:14:21.614Z,24.36
2023-03-26T10:15:25.104Z,24.37
2023-03-26T10:16:48.790Z,24.33
2023-03-26T10:17:57.288Z,24.26
2023-03-26T10:19:24.526Z,24.43
2023-03-26T10:20:35.493Z,24.60
2023-03-26T10:21:37.072Z,24.77
2023-03-26T10:22:44.015Z,24.70
2023-03-26T10:24:07.120Z,24.83
2023-03-26T10:25:21.202Z,24.91
2023-03-26T10:26:37.251Z,24.88
2023-03-26T10:28:09.896Z,24.86
2023-03-26T10:29:38.871Z,24.75
2023-03-26T10:31:16.080Z,24.82
2023-03-26T10:32:34.594Z,25.04
2023-03-26T10:33:49.558Z,25.15
2023-03-26T10:35:08.245Z,24.94
2023-03-26T10:36:35.800Z,24.98
2023-03-26T10:37:46.460Z,25.05
2023-03-26T10:39:36.961Z,25.23
2023-03-26T10:40:43.225Z,25.19
2023-03-26T10:41:53.856Z,25.24
2023-03-26T10:43:29.951Z,25.47
2023-03-26T10:45:10.381Z,25.72
2023-03-26T10:46:20.770Z,25.78
2023-03-26T10:47:49.761Z,25.74
2023-03-26T10:49:28.753Z,25.60
2023-03-26T10:50:48.935Z,25.64
2023-03-26T10:51:53.779Z,25.67
2023-03-26T10:53:34.929Z,25.73
2023-03-26T10:54:46.651Z,25.66
2023-03-26T10:55:54.828Z,25.70
2023-03-26T10:56:57.552Z,25.71
2023-03-26T10:58:22.212Z,25.77
2023-03-26T10:59:27.547Z,25.77
2023-03-26T11:00:30.178Z,25.72
2023-03-26T11:01:51.538Z,25.73
2023-03-26T11:03:11.677Z,25.54
2023-03-26T11:04:19.480Z,25.67
2023-03-26T11:05:28.189Z,25.63
2023-03-26T11:06:35.683Z,25.75
2023-03-26T11:07:44.857Z,25.86
2023-03-26T11:09:20.008Z,25.63
2023-03-26T11:10:40.120Z,25.55
2023-03-26T11:11:55.440Z,25.74
2023-03-26T11:13:13.658Z,25.85
2023-03-26T11:14:34.761Z,26.01
2023-03-26T11:15:39.451Z,26.20
2023-03-26T11:17:14.807Z,26.44
2023-03-26T11:18:50.436Z,26.11
2023-03-26T11:20:23.199Z,26.17
2023-03-26T11:21:29.607Z,26.24
2023-03-26T11:23:00.800Z,26.36
2023-03-26T11:24:04.887Z,26.53
2023-03-26T11:25:38.485Z,26.72
2023-03-26T11:27:15.200Z,26.98
2023-03-26T11:28:37.459Z,27.36
2023-03-26T11:29:48.215Z,27.41
2023-03-26T11:30:55.965Z,27.26
2023-03-26T11:32:06.910Z,27.10
2023-03-26T11:33:13.976Z,26.78
2023-03-26T11:34:20.860Z,26.63
2023-03-26T11:35:39.369Z,26.44
2023-03-26T11:36:50.173Z,26.40
2023-03-26T11:37:59.186Z,26.27
2023-03-26T11:39:04.732Z,25.98
2023-03-26T11:40:15.825Z,25.87
2023-03-26T11:41:23.496Z,26.05
2023-03-26T11:42:25.854Z,25.88
2023-03-26T11:43:36.943Z,25.87
2023-03-26T11:44:42.989Z,25.79
2023-03-26T11:45:48.191Z,25.96
2023-03-26T11:46:58.915Z,26.08
2023-03-26T11:48:23.210Z,26.09
2023-03-26T11:49:26.527Z,26.14
2023-03-26T11:50:32.772Z,26.00
2023-03-26T11:51:36.873Z,26.03
2023-03-26T11:52:38.591Z,26.07
2023-03-26T11:53:40.349Z,26.24
2023-03-26T11:54:43.517Z,26.32
2023-03-26T11:55:58.082Z,26.46
2023-03-26T11:57:21.328Z,26.30
2023-03-26T11:58:52.173Z,25.88
2023-03-26T12:00:16.346Z,25.80
2023-03-26T12:01:30.069Z,25.73
2023-03-26T12:02:39.409Z,25.72
2023-03-26T12:03:43.362Z,25.63
2023-03-26T12:04:55.309Z,25.71
2023-03-26T12:05:59.640Z,25.81
2023-03-26T12:07:18.354Z,25.93
2023-03-26T12:08:31.328Z,26.08
2023-03-26T12:09:33.184Z,26.09
2023-03-26T12:10:38.220Z,26.25
2023-03-26T12:11:41.527Z,26.21
2023-03-26T12:12:46.730Z,26.25
2023-03-26T12:13:56.675Z,26.22
2023-03-26T12:14:59.366Z,26.13
2023-03-26T12:16:09.632Z,25.89
2023-03-26T12:17:31.416Z,25.66
2023-03-26T12:18:34.312Z,25.64
2023-03-26T12:19:39.873Z,25.43
2023-03-26T12:20:42.689Z,25.38
2023-03-26T12:21:50.034Z,25.44
2023-03-26T12:22:59.586Z,25.53
2023-03-26T12:24:04.898Z,25.49
2023-03-26T12:25:17.337Z,25.17
2023-03-26T12:26:21.420Z,25.19
2023-03-26T12:27:31.008Z,25.01
2023-03-26T12:28:32.985Z,24.98
2023-03-26T12:29:35.016Z,25.05
2023-03-26T12:30:39.615Z,25.01
2023-03-26T12:31:56.440Z,24.77
2023-03-26T12:33:04.004Z,24.66
2023-03-26T12:34:18.002Z,24.54
2023-03-26T12:35:29.411Z,24.44
2023-03-26T12:36:33.465Z,24.47
2023-03-26T12:37:43.308Z,24.59
2023-03-26T12:38:46.182Z,24.67
2023-03-26T12:40:26.064Z,24.71
2023-03-26T12:44:42.631Z,24.47
2023-03-26T12:44:46.779Z,24.45
2023-03-26T12:44:54.770Z,24.52
2023-03-26T12:47:46.232Z,24.35
2023-03-26T12:48:01.409Z,24.26
2023-03-26T12:48:55.219Z,24.20
2023-03-26T12:49:58.213Z,24.22
2023-03-26T12:51:32.603Z,24.19
2023-03-26T12:52:48.528Z,24.09
2023-03-26T12:53:50.170Z,23.88
2023-03-26T12:55:38.223Z,23.99
2023-03-26T12:56:47.715Z,24.06
2023-03-26T12:58:19.937Z,24.05
2023-03-26T13:00:07.776Z,24.06
2023-03-26T13:01:22.429Z,23.92
2023-03-26T13:02:48.626Z,23.73
2023-03-26T13:04:14.990Z,23.68
2023-03-26T13:05:31.055Z,23.77
2023-03-26T13:07:00.432Z,23.76
2023-03-26T13:08:41.714Z,23.89
2023-03-26T13:10:08.638Z,23.96
2023-03-26T13:11:47.222Z,24.02
2023-03-26T13:13:15.402Z,24.08
2023-03-26T13:14:32.364Z,24.17
2023-03-26T13:15:52.647Z,24.34
2023-03-26T13:17:22.987Z,24.40
2023-03-26T13:18:35.734Z,24.42
2023-03-26T13:19:44.172Z,24.19
2023-03-26T13:20:51.621Z,24.16
2023-03-26T13:22:02.561Z,24.18
2023-03-26T13:23:28.667Z,24.28
2023-03-26T13:24:42.430Z,24.21
2023-03-26T13:25:53.906Z,24.25
2023-03-26T13:27:14.914Z,24.24
2023-03-26T13:28:40.585Z,24.21
2023-03-26T13:30:02.600Z,24.37
2023-03-26T13:31:17.762Z,24.46
2023-03-26T13:32:31.233Z,24.52
2023-03-26T13:33:57.855Z,24.24
2023-03-26T13:35:13.609Z,24.31
2023-03-26T13:36:39.292Z,24.29
2023-03-26T13:37:53.504Z,24.39
2023-03-26T13:39:08.187Z,24.34
2023-03-26T13:40:25.433Z,24.35
2023-03-26T13:41:48.831Z,24.27
2023-03-26T13:42:59.249Z,24.16
2023-03-26T13:44:16.004Z,24.08
2023-03-26T13:45:33.963Z,24.14
2023-03-26T13:46:43.276Z,24.16
2023-03-26T13:47:49.966Z,24.18
2023-03-26T13:49:15.552Z,24.19
2023-03-26T13:50:39.436Z,24.16
2023-03-26T13:51:49.199Z,24.21
2023-03-26T13:52:58.648Z,24.30
2023-03-26T13:54:30.728Z,24.41
2023-03-26T13:55:38.692Z,24.03
2023-03-26T13:56:46.564Z,24.11
2023-03-26T13:58:08.857Z,24.10
2023-03-26T13:59:21.149Z,24.04
2023-03-26T14:00:33.974Z,24.21
2023-03-26T14:01:43.874Z,24.19
2023-03-26T14:02:53.416Z,24.22
2023-03-26T14:04:09.394Z,24.10
2023-03-26T14:05:20.459Z,24.05
2023-03-26T14:06:27.956Z,23.86
2023-03-26T14:07:55.015Z,23.80
2023-03-26T14:09:04.990Z,23.75
2023-03-26T14:10:19.970Z,23.58
2023-03-26T14:11:42.600Z,23.63
2023-03-26T14:13:10.889Z,23.53
2023-03-26T14:14:19.601Z,23.60
2023-03-26T14:15:37.725Z,23.62
2023-03-26T14:16:48.226Z,23.67
2023-03-26T14:18:06.190Z,23.68
2023-03-26T14:19:26.059Z,23.75
2023-03-26T14:20:58.616Z,23.74
2023-03-26T14:22:12.572Z,23.75
2023-03-26T14:23:37.507Z,23.79
2023-03-26T14:24:51.629Z,23.81
2023-03-26T14:26:10.635Z,23.73
2023-03-26T14:27:24.686Z,23.76
2023-03-26T14:28:41.581Z,23.74
2023-03-26T14:30:14.306Z,23.76
2023-03-26T14:31:30.589Z,23.68
2023-03-26T14:32:50.407Z,23.67
2023-03-26T14:34:29.341Z,23.59
2023-03-26T14:35:37.635Z,23.50
2023-03-26T14:36:59.222Z,23.52
2023-03-26T14:38:12.472Z,23.43
2023-03-26T14:39:23.710Z,23.37
2023-03-26T14:40:43.472Z,23.18
2023-03-26T14:42:12.420Z,23.12
2023-03-26T14:43:58.490Z,23.19
2023-03-26T14:45:00.401Z,23.16
2023-03-26T14:46:12.139Z,23.12
2023-03-26T14:47:17.080Z,23.01
2023-03-26T14:48:24.588Z,23.02
2023-03-26T14:49:53.744Z,22.99
2023-03-26T14:51:32.705Z,22.79
2023-03-26T14:52:49.768Z,22.62
2023-03-26T14:53:57.105Z,22.64
2023-03-26T14:55:03.823Z,22.47
2023-03-26T14:56:15.772Z,22.57
2023-03-26T14:57:26.431Z,22.63
2023-03-26T14:59:05.410Z,22.63
2023-03-26T15:00:42.905Z,22.60
2023-03-26T15:02:21.740Z,22.78
2023-03-26T15:04:06.751Z,22.61
2023-03-26T15:05:52.152Z,22.54
2023-03-26T15:07:02.867Z,22.51
2023-03-26T15:08:35.336Z,22.58
2023-03-26T15:09:58.106Z,22.56
2023-03-26T15:11:21.013Z,22.52
2023-03-26T15:13:03.631Z,22.51
2023-03-26T15:14:37.350Z,22.50
2023-03-26T15:15:41.808Z,22.47
2023-03-26T15:17:09.854Z,22.45
2023-03-26T15:18:23.496Z,22.43
2023-03-26T15:19:49.695Z,22.51
2023-03-26T15:21:29.050Z,22.42
2023-03-26T15:23:07.903Z,22.39
2023-03-26T15:24:53.324Z,22.44
2023-03-26T15:26:31.107Z,22.46
2023-03-26T15:28:12.306Z,22.39
2023-03-26T15:29:35.616Z,22.28
2023-03-26T15:31:06.742Z,22.21
2023-03-26T15:32:44.608Z,22.23
2023-03-26T15:34:04.550Z,22.07
2023-03-26T15:35:09.903Z,22.10
2023-03-26T15:36:32.786Z,22.11
2023-03-26T15:37:46.575Z,22.15
2023-03-26T15:38:57.098Z,22.21
2023-03-26T15:40:15.110Z,22.20
2023-03-26T15:41:32.099Z,22.18
2023-03-26T15:42:44.810Z,22.10
2023-03-26T15:45:35.995Z,22.07
2023-03-26T15:46:37.715Z,22.01
2023-03-26T15:48:04.991Z,22.00
2023-03-26T15:49:24.950Z,21.99
2023-03-26T15:50:29.622Z,21.85
2023-03-26T15:51:57.625Z,21.64
2023-03-26T15:53:33.745Z,21.83
2023-03-26T15:54:52.272Z,21.78
2023-03-26T15:56:31.338Z,21.72
2023-03-26T15:58:02.134Z,21.66
2023-03-26T15:59:16.636Z,21.72
2023-03-26T16:00:23.224Z,21.71
2023-03-26T16:02:05.150Z,21.66
2023-03-26T16:03:15.752Z,21.61
2023-03-26T16:04:50.685Z,21.62
2023-03-26T16:06:14.253Z,21.62
2023-03-26T16:07:29.134Z,21.58
2023-03-26T16:08:39.160Z,21.50
2023-03-26T16:10:00.926Z,21.42
2023-03-26T16:11:08.152Z,21.38
2023-03-26T16:12:12.896Z,21.32
2023-03-26T16:13:18.310Z,21.25
2023-03-26T16:14:25.782Z,21.21
2023-03-26T16:15:29.730Z,21.19
2023-03-26T16:16:49.886Z,21.09
2023-03-26T16:18:11.748Z,20.95
2023-03-26T16:19:19.571Z,20.91
2023-03-26T16:20:33.294Z,20.89
2023-03-26T16:21:43.439Z,20.83
2023-03-26T16:22:56.627Z,20.80
2023-03-26T16:24:07.535Z,20.73
2023-03-26T16:25:29.107Z,20.65
2023-03-26T16:26:55.598Z,20.56
2023-03-26T16:28:26.573Z,20.48
2023-03-26T16:29:30.590Z,20.40
2023-03-26T16:30:33.667Z,20.29
2023-03-26T16:31:38.120Z,20.29
2023-03-26T16:32:46.614Z,20.24
2023-03-26T16:34:09.046Z,20.17
2023-03-26T16:35:13.946Z,20.09
2023-03-26T16:36:42.292Z,20.00
2023-03-26T16:37:50.722Z,19.88
2023-03-26T16:39:05.105Z,19.80
2023-03-26T16:40:22.583Z,19.71
2023-03-26T16:41:27.994Z,19.65
2023-03-26T16:42:42.246Z,19.57
2023-03-26T16:43:56.078Z,19.43
2023-03-26T16:45:17.922Z,19.45
2023-03-26T16:46:33.336Z,19.38
2023-03-26T16:47:47.160Z,19.31
2023-03-26T16:49:18.115Z,19.16
2023-03-26T16:50:42.949Z,19.15
2023-03-26T16:52:23.420Z,19.10
2023-03-26T16:53:41.812Z,19.05
2023-03-26T16:56:23.597Z,18.92
2023-03-26T16:57:41.458Z,18.81
2023-03-26T16:59:07.216Z,18.83
2023-03-26T17:00:30.711Z,18.74
2023-03-26T17:01:46.596Z,18.71
2023-03-26T17:03:24.357Z,18.65
2023-03-26T17:04:30.598Z,18.60
2023-03-26T17:05:51.195Z,18.55
2023-03-26T17:07:14.679Z,18.47
2023-03-26T17:08:36.520Z,18.23
2023-03-26T17:10:09.016Z,18.22
2023-03-26T17:11:19.398Z,18.32